createdAt,value
2022-10-17T00:02:11.572Z,17.20
2022-10-17T00:04:38.228Z,17.20
2022-10-17T00:07:04.893Z,17.20
2022-10-17T00:09:31.627Z,17.20
2022-10-17T00:11:58.390Z,17.30
2022-10-17T00:14:25.122Z,17.30
2022-10-17T00:16:51.834Z,17.20
2022-10-17T00:19:18.686Z,17.20
2022-10-17T00:21:45.409Z,17.30
2022-10-17T00:24:12.096Z,17.20
2022-10-17T00:26:38.913Z,17.30
2022-10-17T00:29:06.053Z,17.20
2022-10-17T00:31:32.816Z,17.20
2022-10-17T00:33:59.505Z,17.20
2022-10-17T00:36:26.456Z,17.20
2022-10-17T00:38:55.112Z,17.20
2022-10-17T00:41:24.011Z,17.10
2022-10-17T00:44:03.790Z,17.10
2022-10-17T00:46:34.506Z,17.00
2022-10-17T00:49:07.077Z,17.00
2022-10-17T00:51:45.520Z,17.00
2022-10-17T00:54:13.367Z,16.90
2022-10-17T00:56:40.054Z,16.90
2022-10-17T00:59:08.759Z,16.80
2022-10-17T01:01:35.563Z,16.80
2022-10-17T01:04:02.328Z,16.80
2022-10-17T01:06:29.007Z,16.80
2022-10-17T01:08:55.878Z,16.80
2022-10-17T01:11:41.056Z,16.80
2022-10-17T01:14:15.542Z,16.70
2022-10-17T01:16:50.783Z,16.70
2022-10-17T01:19:32.693Z,16.70
2022-10-17T01:22:19.488Z,16.70
2022-10-17T01:24:54.025Z,16.60
2022-10-17T01:27:47.586Z,16.60
2022-10-17T01:30:28.959Z,16.60
2022-10-17T01:32:57.561Z,16.50
2022-10-17T01:35:43.156Z,16.50
2022-10-17T01:38:11.993Z,16.50
2022-10-17T01:40:43.122Z,16.50
2022-10-17T01:43:22.022Z,16.50
2022-10-17T01:46:20.704Z,16.40
2022-10-17T01:48:47.428Z,16.40
2022-10-17T01:51:21.488Z,16.40
2022-10-17T01:54:03.145Z,16.40
2022-10-17T01:56:30.821Z,16.40
2022-10-17T01:59:06.906Z,16.40
2022-10-17T02:01:33.815Z,16.30
2022-10-17T02:04:00.636Z,16.30
2022-10-17T02:06:27.321Z,16.30
2022-10-17T02:08:54.042Z,16.30
2022-10-17T02:11:22.057Z,16.30
2022-10-17T02:14:08.858Z,16.30
2022-10-17T02:16:54.107Z,16.30
2022-10-17T02:19:55.368Z,16.30
2022-10-17T02:22:27.701Z,16.30
2022-10-17T02:25:28.876Z,16.30
2022-10-17T02:28:14.377Z,16.40
2022-10-17T02:30:45.406Z,16.30
2022-10-17T02:33:49.220Z,16.40
2022-10-17T02:36:19.281Z,16.30
2022-10-17T02:38:46.005Z,16.30
2022-10-17T02:41:15.104Z,16.20
2022-10-17T02:43:41.843Z,16.20
2022-10-17T02:46:08.538Z,16.30
2022-10-17T02:48:38.561Z,16.30
2022-10-17T02:51:20.121Z,16.20
2022-10-17T02:53:59.327Z,16.20
2022-10-17T02:56:25.961Z,16.30
2022-10-17T02:58:55.028Z,16.30
2022-10-17T03:01:21.734Z,16.30
2022-10-17T03:03:48.747Z,16.20
2022-10-17T03:06:15.798Z,16.30
2022-10-17T03:08:42.495Z,16.20
2022-10-17T03:11:09.184Z,16.20
2022-10-17T03:13:38.998Z,16.20
2022-10-17T03:16:06.710Z,16.20
2022-10-17T03:18:33.475Z,16.20
2022-10-17T03:21:00.216Z,16.10
2022-10-17T03:23:26.944Z,16.10
2022-10-17T03:25:53.629Z,16.20
2022-10-17T03:28:20.412Z,16.10
2022-10-17T03:30:47.115Z,16.10
2022-10-17T03:33:13.818Z,16.00
2022-10-17T03:35:40.542Z,16.10
2022-10-17T03:38:07.383Z,16.00
2022-10-17T03:40:34.060Z,16.10
2022-10-17T03:43:00.729Z,16.10
2022-10-17T03:45:27.423Z,16.10
2022-10-17T03:47:54.086Z,16.10
2022-10-17T03:50:20.761Z,16.10
2022-10-17T03:52:48.298Z,16.10
2022-10-17T03:55:15.600Z,16.10
2022-10-17T03:57:44.790Z,16.10
2022-10-17T04:00:12.948Z,16.10
2022-10-17T04:02:40.028Z,16.10
2022-10-17T04:05:07.478Z,16.10
2022-10-17T04:07:34.224Z,16.20
2022-10-17T04:10:00.913Z,16.20
2022-10-17T04:12:27.878Z,16.20
2022-10-17T04:14:54.783Z,16.20
2022-10-17T04:17:21.603Z,16.20
2022-10-17T04:19:49.595Z,16.20
2022-10-17T04:22:16.280Z,16.30
2022-10-17T04:24:42.984Z,16.30
2022-10-17T04:27:09.663Z,16.30
2022-10-17T04:29:36.369Z,16.30
2022-10-17T04:32:03.121Z,16.30
2022-10-17T04:34:29.842Z,16.30
2022-10-17T04:36:56.531Z,16.40
2022-10-17T04:39:23.264Z,16.30
2022-10-17T04:41:49.970Z,16.30
2022-10-17T04:44:16.612Z,16.30
2022-10-17T04:46:43.293Z,16.30
2022-10-17T04:49:09.956Z,16.30
2022-10-17T04:51:36.713Z,16.30
2022-10-17T04:54:03.390Z,16.30
2022-10-17T04:56:30.113Z,16.40
2022-10-17T04:58:57.980Z,16.30
2022-10-17T05:01:24.960Z,16.30
2022-10-17T05:03:51.963Z,16.30
2022-10-17T05:06:20.565Z,16.30
2022-10-17T05:08:47.443Z,16.40
2022-10-17T05:11:19.556Z,16.30
2022-10-17T05:13:50.458Z,16.30
2022-10-17T05:16:17.172Z,16.30
2022-10-17T05:18:43.861Z,16.30
2022-10-17T05:21:10.616Z,16.30
2022-10-17T05:23:37.277Z,16.30
2022-10-17T05:26:04.005Z,16.30
2022-10-17T05:28:31.006Z,16.30
2022-10-17T05:30:57.680Z,16.30
2022-10-17T05:33:24.337Z,16.30
2022-10-17T05:35:51.133Z,16.30
2022-10-17T05:38:17.886Z,16.40
2022-10-17T05:40:44.599Z,16.40
2022-10-17T05:43:11.451Z,16.30
2022-10-17T05:45:38.166Z,16.30
2022-10-17T05:48:06.879Z,16.40
2022-10-17T05:50:33.598Z,16.40
2022-10-17T05:53:00.377Z,16.40
2022-10-17T05:55:27.174Z,16.40
2022-10-17T05:57:53.824Z,16.40
2022-10-17T06:00:21.379Z,16.40
2022-10-17T06:02:48.200Z,16.40
2022-10-17T06:05:15.042Z,16.40
2022-10-17T06:07:41.838Z,16.40
2022-10-17T06:10:09.064Z,16.30
2022-10-17T06:12:35.749Z,16.30
2022-10-17T06:15:02.503Z,16.30
2022-10-17T06:17:29.191Z,16.30
2022-10-17T06:19:56.352Z,16.30
2022-10-17T06:22:23.366Z,16.30
2022-10-17T06:24:50.037Z,16.30
2022-10-17T06:27:16.790Z,16.30
2022-10-17T06:29:43.449Z,16.30
2022-10-17T06:32:12.741Z,16.30
2022-10-17T06:34:43.588Z,16.30
2022-10-17T06:37:10.298Z,16.40
2022-10-17T06:39:37.022Z,16.30
2022-10-17T06:42:04.144Z,16.40
2022-10-17T06:44:31.015Z,16.30
2022-10-17T06:46:58.762Z,16.30
2022-10-17T06:49:25.501Z,16.40
2022-10-17T06:51:52.227Z,16.30
2022-10-17T06:54:18.952Z,16.40
2022-10-17T06:56:45.737Z,16.40
2022-10-17T06:59:12.546Z,16.40
2022-10-17T07:01:41.770Z,16.40
2022-10-17T07:04:11.260Z,16.40
2022-10-17T07:06:38.559Z,16.30
2022-10-17T07:09:05.590Z,16.30
2022-10-17T07:11:32.530Z,16.30
2022-10-17T07:13:59.173Z,16.30
2022-10-17T07:16:25.840Z,16.40
2022-10-17T07:18:52.618Z,16.40
2022-10-17T07:21:19.349Z,16.40
2022-10-17T07:23:46.084Z,16.40
2022-10-17T07:26:14.361Z,16.40
2022-10-17T07:28:42.882Z,16.40
2022-10-17T07:31:11.342Z,16.40
2022-10-17T07:33:38.032Z,16.40
2022-10-17T07:36:05.206Z,16.40
2022-10-17T07:38:32.022Z,16.40
2022-10-17T07:41:01.098Z,16.40
2022-10-17T07:43:27.922Z,16.40
2022-10-17T07:45:54.659Z,16.40
2022-10-17T07:48:21.969Z,16.40
2022-10-17T07:50:48.836Z,16.40
2022-10-17T07:53:15.559Z,16.40
2022-10-17T07:55:42.385Z,16.50
2022-10-17T07:58:09.278Z,16.50
2022-10-17T08:00:36.868Z,16.50
2022-10-17T08:03:04.142Z,16.60
2022-10-17T08:05:31.117Z,16.60
2022-10-17T08:07:57.805Z,16.60
2022-10-17T08:10:24.470Z,16.70
2022-10-17T08:12:51.164Z,16.70
2022-10-17T08:15:17.928Z,16.70
2022-10-17T08:17:44.587Z,16.70
2022-10-17T08:20:11.678Z,16.70
2022-10-17T08:22:38.384Z,16.80
2022-10-17T08:25:05.531Z,16.70
2022-10-17T08:27:35.386Z,16.80
2022-10-17T08:30:04.139Z,16.80
2022-10-17T08:32:31.303Z,16.80
2022-10-17T08:34:58.229Z,16.80
2022-10-17T08:37:24.943Z,16.90
2022-10-17T08:39:54.367Z,16.90
2022-10-17T08:42:40.326Z,16.90
2022-10-17T08:45:10.080Z,17.00
2022-10-17T08:47:39.623Z,17.00
2022-10-17T08:50:07.912Z,17.00
2022-10-17T08:52:55.923Z,17.00
2022-10-17T08:55:48.443Z,17.00
2022-10-17T08:58:27.799Z,17.10
2022-10-17T09:01:19.617Z,17.10
2022-10-17T09:03:59.094Z,17.10
2022-10-17T09:06:30.663Z,17.10
2022-10-17T09:09:03.764Z,17.20
2022-10-17T09:11:54.964Z,17.40
2022-10-17T09:14:37.532Z,17.60
2022-10-17T09:17:22.740Z,17.80
2022-10-17T09:20:03.806Z,17.90
2022-10-17T09:22:38.785Z,18.10
2022-10-17T09:25:09.610Z,18.20
2022-10-17T09:27:42.698Z,18.40
2022-10-17T09:30:44.738Z,18.50
2022-10-17T09:33:28.506Z,18.60
2022-10-17T09:36:09.403Z,18.60
2022-10-17T09:38:45.729Z,18.60
2022-10-17T09:41:50.252Z,18.60
2022-10-17T09:44:29.792Z,18.70
2022-10-17T09:47:34.260Z,18.70
2022-10-17T09:50:01.598Z,18.80
2022-10-17T09:52:35.535Z,18.90
2022-10-17T09:55:06.997Z,19.10
2022-10-17T09:57:58.158Z,19.50
2022-10-17T10:00:32.546Z,20.10
2022-10-17T10:03:15.409Z,20.60
2022-10-17T10:05:42.183Z,20.90
2022-10-17T10:08:14.818Z,21.00
2022-10-17T10:10:41.562Z,21.80
2022-10-17T10:13:16.972Z,22.60
2022-10-17T10:15:45.227Z,23.30
2022-10-17T10:21:06.287Z,24.00
2022-10-17T10:23:33.131Z,24.10
2022-10-17T10:26:04.140Z,24.10
2022-10-17T10:28:35.345Z,24.20
2022-10-17T10:31:06.779Z,24.50
2022-10-17T10:33:36.746Z,24.80
2022-10-17T10:36:05.874Z,24.70
2022-10-17T10:38:32.916Z,24.70
2022-10-17T10:41:02.596Z,24.60
2022-10-17T10:44:02.291Z,24.50
2022-10-17T10:46:29.021Z,24.60
2022-10-17T10:49:00.267Z,24.80
2022-10-17T10:51:44.094Z,25.30
2022-10-17T10:54:10.800Z,25.80
2022-10-17T10:56:41.489Z,26.50
2022-10-17T10:59:19.617Z,26.80
2022-10-17T11:01:49.145Z,27.20
2022-10-17T11:04:47.533Z,27.40
2022-10-17T11:07:19.644Z,27.80
2022-10-17T11:09:49.198Z,28.50
2022-10-17T11:12:23.613Z,28.90
2022-10-17T11:15:39.976Z,29.10
2022-10-17T11:18:26.859Z,28.90
2022-10-17T11:21:15.150Z,28.50
2022-10-17T11:23:48.152Z,28.20
2022-10-17T11:26:28.979Z,28.20
2022-10-17T11:28:56.738Z,28.20
2022-10-17T11:31:25.446Z,28.50
2022-10-17T11:33:57.839Z,28.80
2022-10-17T11:36:32.666Z,28.90
2022-10-17T11:39:04.179Z,28.90
2022-10-17T11:41:41.982Z,28.80
2022-10-17T11:44:17.970Z,28.70
2022-10-17T11:46:44.670Z,28.60
2022-10-17T11:49:20.503Z,28.40
2022-10-17T11:52:02.383Z,28.10
2022-10-17T11:54:38.318Z,27.80
2022-10-17T11:57:19.612Z,27.60
2022-10-17T11:59:52.311Z,27.50
2022-10-17T12:02:46.146Z,27.30
2022-10-17T12:05:34.165Z,27.00
2022-10-17T12:08:03.572Z,26.60
2022-10-17T12:10:48.523Z,26.20
2022-10-17T12:13:33.605Z,25.70
2022-10-17T12:16:18.744Z,25.40
2022-10-17T12:19:09.335Z,25.20
2022-10-17T12:21:55.091Z,25.20
2022-10-17T12:24:57.859Z,25.10
2022-10-17T12:27:43.511Z,25.00
2022-10-17T12:30:13.260Z,25.00
2022-10-17T12:33:07.805Z,24.90
2022-10-17T12:35:36.591Z,24.80
2022-10-17T12:38:14.044Z,24.50
2022-10-17T12:40:48.473Z,24.40
2022-10-17T12:43:15.645Z,24.40
2022-10-17T12:45:51.983Z,24.60
2022-10-17T12:48:33.901Z,24.80
2022-10-17T12:54:00.722Z,25.60
2022-10-17T12:56:34.667Z,26.20
2022-10-17T12:59:01.407Z,26.70
2022-10-17T13:01:30.503Z,27.10
2022-10-17T13:03:57.284Z,27.50
2022-10-17T13:06:25.827Z,27.70
2022-10-17T13:09:04.457Z,27.70
2022-10-17T13:11:33.707Z,27.60
2022-10-17T13:14:02.136Z,27.50
2022-10-17T13:16:32.452Z,27.60
2022-10-17T13:18:59.785Z,27.20
2022-10-17T13:21:26.561Z,26.60
2022-10-17T13:23:53.336Z,26.10
2022-10-17T13:26:22.255Z,25.60
2022-10-17T13:29:11.995Z,25.20
2022-10-17T13:31:40.275Z,24.70
2022-10-17T13:34:18.231Z,24.40
2022-10-17T13:36:48.838Z,24.40
2022-10-17T13:39:32.435Z,24.70
2022-10-17T13:42:05.435Z,24.70
2022-10-17T13:44:35.407Z,24.60
2022-10-17T13:47:02.143Z,24.40
2022-10-17T13:49:38.022Z,24.10
2022-10-17T13:52:06.446Z,23.90
2022-10-17T13:54:43.969Z,23.70
2022-10-17T13:57:40.518Z,23.30
2022-10-17T14:00:15.326Z,23.00
2022-10-17T14:02:42.125Z,22.90
2022-10-17T14:05:18.107Z,22.80
2022-10-17T14:08:09.991Z,22.80
2022-10-17T14:10:34.663Z,22.80
2022-10-17T14:13:01.430Z,22.70
2022-10-17T14:15:29.392Z,22.70
2022-10-17T14:18:08.140Z,22.60
2022-10-17T14:23:40.226Z,22.40
2022-10-17T14:26:10.614Z,22.30
2022-10-17T14:28:37.547Z,22.10
2022-10-17T14:31:34.264Z,21.90
2022-10-17T14:34:07.033Z,21.60
2022-10-17T14:36:40.343Z,21.40
2022-10-17T14:39:13.433Z,21.30
2022-10-17T14:41:43.965Z,21.20
2022-10-17T14:44:33.204Z,21.20
2022-10-17T14:47:24.050Z,21.10
2022-10-17T14:49:52.630Z,20.90
2022-10-17T14:52:19.393Z,20.80
2022-10-17T14:54:49.411Z,20.60
2022-10-17T14:57:29.843Z,20.60
2022-10-17T14:59:56.730Z,20.50
2022-10-17T15:02:25.076Z,20.50
2022-10-17T15:04:52.107Z,20.40
2022-10-17T15:07:18.860Z,20.40
2022-10-17T15:09:47.109Z,20.40
2022-10-17T15:12:19.301Z,20.40
2022-10-17T15:14:46.039Z,20.40
2022-10-17T15:17:16.000Z,20.40
2022-10-17T15:19:42.764Z,20.30
2022-10-17T15:22:09.441Z,20.30
2022-10-17T15:24:36.164Z,20.20
2022-10-17T15:27:02.868Z,20.20
2022-10-17T15:29:29.629Z,20.10
2022-10-17T15:31:56.317Z,20.00
2022-10-17T15:34:23.191Z,19.90
2022-10-17T15:36:51.181Z,19.70
2022-10-17T15:39:18.099Z,19.70
2022-10-17T15:41:44.790Z,19.60
2022-10-17T15:44:11.497Z,19.50
2022-10-17T15:46:38.133Z,19.50
2022-10-17T15:49:05.801Z,19.40
2022-10-17T15:51:32.766Z,19.40
2022-10-17T15:53:59.597Z,19.40
2022-10-17T15:56:31.187Z,19.40
2022-10-17T15:58:57.930Z,19.40
2022-10-17T16:01:27.259Z,19.40
2022-10-17T16:03:54.213Z,19.40
2022-10-17T16:06:21.335Z,19.30
2022-10-17T16:08:48.316Z,19.20
2022-10-17T16:11:17.482Z,19.20
2022-10-17T16:13:47.281Z,19.10
2022-10-17T16:16:13.926Z,19.10
2022-10-17T16:18:40.836Z,19.10
2022-10-17T16:21:11.650Z,19.00
2022-10-17T16:23:38.418Z,18.90
2022-10-17T16:26:05.365Z,18.80
2022-10-17T16:28:32.160Z,18.70
2022-10-17T16:30:58.968Z,18.60
2022-10-17T16:33:25.813Z,18.50
2022-10-17T16:35:52.535Z,18.50
2022-10-17T16:38:19.204Z,18.40
2022-10-17T16:40:45.911Z,18.30
2022-10-17T16:43:12.953Z,18.20
2022-10-17T16:45:39.751Z,18.10
2022-10-17T16:48:06.673Z,18.10
2022-10-17T16:50:33.334Z,18.00
2022-10-17T16:53:00.008Z,18.00
2022-10-17T16:55:26.664Z,17.80
2022-10-17T16:57:53.370Z,17.80
2022-10-17T17:00:20.503Z,17.70
2022-10-17T17:02:48.004Z,17.60
2022-10-17T17:05:14.932Z,17.50
2022-10-17T17:07:41.612Z,17.50
2022-10-17T17:10:08.746Z,17.40
2022-10-17T17:12:35.774Z,17.30
2022-10-17T17:15:02.613Z,17.20
2022-10-17T17:17:30.760Z,17.20
2022-10-17T17:20:04.207Z,17.10
2022-10-17T17:22:30.898Z,17.10
2022-10-17T17:24:57.669Z,17.00
2022-10-17T17:27:24.370Z,17.00
2022-10-17T17:29:51.084Z,16.90
2022-10-17T17:32:17.761Z,16.90
2022-10-17T17:34:44.674Z,16.90
2022-10-17T17:37:11.372Z,16.80
2022-10-17T17:39:38.211Z,16.80
2022-10-17T17:42:04.893Z,16.80
2022-10-17T17:44:31.627Z,16.70
2022-10-17T17:46:58.331Z,16.60
2022-10-17T17:49:25.006Z,16.60
2022-10-17T17:51:51.699Z,16.50
2022-10-17T17:54:18.371Z,16.50
2022-10-17T17:56:45.052Z,16.50
2022-10-17T17:59:12.387Z,16.40
2022-10-17T18:01:39.363Z,16.40
2022-10-17T18:04:07.380Z,16.40
2022-10-17T18:06:34.255Z,16.30
2022-10-17T18:09:00.983Z,16.30
2022-10-17T18:11:27.818Z,16.30
2022-10-17T18:13:56.066Z,16.20
2022-10-17T18:16:23.466Z,16.30
2022-10-17T18:18:50.308Z,16.20
2022-10-17T18:21:17.011Z,16.20
2022-10-17T18:23:45.055Z,16.20
2022-10-17T18:26:12.024Z,16.20
2022-10-17T18:31:14.090Z,16.20
2022-10-17T18:33:40.861Z,16.10
2022-10-17T18:36:10.570Z,16.10
2022-10-17T18:38:37.361Z,16.10
2022-10-17T18:41:30.582Z,16.10
2022-10-17T18:43:57.292Z,16.10
2022-10-17T18:46:33.466Z,16.10
2022-10-17T18:49:00.147Z,16.10
2022-10-17T18:51:27.166Z,16.00
2022-10-17T18:53:57.347Z,16.00
2022-10-17T18:56:24.115Z,15.90
2022-10-17T18:58:51.071Z,15.90
2022-10-17T19:01:19.387Z,15.90
2022-10-17T19:03:47.175Z,15.80
2022-10-17T19:06:15.053Z,15.80
2022-10-17T19:08:42.282Z,15.70
2022-10-17T19:11:11.970Z,15.60
2022-10-17T19:13:38.815Z,15.60
2022-10-17T19:16:09.919Z,15.50
2022-10-17T19:18:36.797Z,15.50
2022-10-17T19:21:04.635Z,15.50
2022-10-17T19:23:31.416Z,15.50
2022-10-17T19:26:08.125Z,15.40
2022-10-17T19:28:35.079Z,15.40
2022-10-17T19:31:01.885Z,15.40
2022-10-17T19:36:08.476Z,15.30
2022-10-17T19:38:35.227Z,15.20
2022-10-17T19:41:08.548Z,15.20
2022-10-17T19:43:42.015Z,15.10
2022-10-17T19:46:13.472Z,15.10
2022-10-17T19:48:40.150Z,15.00
2022-10-17T19:51:07.915Z,15.00
2022-10-17T19:53:34.977Z,14.90
2022-10-17T19:56:01.713Z,14.90
2022-10-17T19:58:28.411Z,14.90
2022-10-17T20:00:57.263Z,14.90
2022-10-17T20:03:24.777Z,14.80
2022-10-17T20:05:51.584Z,14.80
2022-10-17T20:08:18.990Z,14.70
2022-10-17T20:10:45.834Z,14.70
2022-10-17T20:13:13.037Z,14.70
2022-10-17T20:15:39.773Z,14.70
2022-10-17T20:18:06.819Z,14.60
2022-10-17T20:20:36.723Z,14.60
2022-10-17T20:23:03.986Z,14.60
2022-10-17T20:25:30.756Z,14.60
2022-10-17T20:27:57.508Z,14.60
2022-10-17T20:30:24.194Z,14.60
2022-10-17T20:32:55.070Z,14.50
2022-10-17T20:35:22.247Z,14.50
2022-10-17T20:37:48.986Z,14.40
2022-10-17T20:40:44.211Z,14.40
2022-10-17T20:43:03.545Z,14.40
2022-10-17T20:45:45.164Z,14.40
2022-10-17T20:48:17.154Z,14.30
2022-10-17T20:50:43.986Z,14.30
2022-10-17T20:53:35.492Z,14.20
2022-10-17T20:56:08.687Z,14.20
2022-10-17T20:58:35.638Z,14.20
2022-10-17T21:01:09.778Z,14.10
2022-10-17T21:03:39.810Z,14.10
2022-10-17T21:06:09.329Z,14.00
2022-10-17T21:08:36.026Z,14.00
2022-10-17T21:11:29.462Z,13.90
2022-10-17T21:13:58.544Z,13.90
2022-10-17T21:16:25.275Z,13.80
2022-10-17T21:18:52.046Z,13.80
2022-10-17T21:21:23.076Z,13.70
2022-10-17T21:23:50.584Z,13.70
2022-10-17T21:26:17.929Z,13.70
2022-10-17T21:28:45.204Z,13.60
2022-10-17T21:31:20.046Z,13.60
2022-10-17T21:33:53.033Z,13.50
2022-10-17T21:36:19.926Z,13.50
2022-10-17T21:51:25.564Z,13.40
2022-10-17T21:53:53.241Z,13.60
2022-10-17T22:45:07.167Z,11.80
2022-10-17T22:47:33.915Z,12.30
2022-10-17T22:50:00.589Z,12.30
2022-10-17T22:52:28.263Z,12.40
2022-10-17T22:54:55.087Z,12.40
2022-10-17T22:57:21.748Z,12.30
2022-10-17T22:59:48.399Z,12.30
2022-10-17T23:02:15.057Z,12.30
2022-10-17T23:04:41.739Z,12.30
2022-10-17T23:07:08.695Z,12.20
2022-10-17T23:09:35.352Z,12.30
2022-10-17T23:12:02.057Z,12.20
2022-10-17T23:14:28.724Z,12.20
2022-10-17T23:16:55.417Z,12.20
2022-10-17T23:19:22.103Z,12.20
2022-10-17T23:21:48.768Z,12.20
2022-10-17T23:24:15.489Z,12.10
2022-10-17T23:26:42.145Z,12.10
2022-10-17T23:29:08.924Z,12.10
2022-10-17T23:31:35.643Z,12.10
2022-10-17T23:34:02.280Z,12.10
2022-10-17T23:36:28.997Z,12.10
2022-10-17T23:38:58.442Z,12.00
2022-10-17T23:41:25.463Z,12.00
2022-10-17T23:43:52.117Z,12.00
2022-10-17T23:46:18.813Z,12.00
2022-10-17T23:48:45.543Z,11.90
2022-10-17T23:51:12.260Z,11.90
2022-10-17T23:53:39.316Z,11.90
2022-10-17T23:56:06.583Z,11.90
2022-10-17T23:58:33.412Z,11.90
